Time;durP1;ratioP1;P1;durP2;ratioP2;P2;SDS_P1;SDS_P2;PMS_P1;PMS_P2;Temp;Humidity;BMP_temperature;BMP_pressure;BME280_temperature;BME280_humidity;BME280_pressure;Samples;Min_cycle;Max_cycle;Signal;HPM_P1;HPM_P2
2023/06/09 00:00:57;;;;;;;17.73;4.25;;;;;;;15.40;100.00;101685.13;5045086;28;20029;-59
2023/06/09 00:03:24;;;;;;;26.20;4.35;;;;;;;15.35;100.00;101674.69;5045693;28;20482;-56
2023/06/09 00:05:49;;;;;;;12.00;4.13;;;;;;;15.24;100.00;101679.56;5045561;28;20021;-59
2023/06/09 00:08:15;;;;;;;10.60;3.83;;;;;;;15.25;100.00;101679.50;5045421;28;20043;-59
2023/06/09 00:10:40;;;;;;;12.60;4.13;;;;;;;15.36;100.00;101679.09;5046069;28;20031;-60
2023/06/09 00:13:06;;;;;;;13.57;4.68;;;;;;;15.44;100.00;101664.63;5045577;28;20055;-59
2023/06/09 00:15:31;;;;;;;14.63;4.40;;;;;;;15.41;100.00;101669.13;5045200;28;21156;-56
2023/06/09 00:17:57;;;;;;;16.30;3.85;;;;;;;15.31;100.00;101674.84;5045022;28;20036;-62
2023/06/09 00:20:25;;;;;;;15.30;4.22;;;;;;;15.13;100.00;101667.59;5045134;28;20035;-59
2023/06/09 00:22:51;;;;;;;15.48;4.30;;;;;;;15.13;100.00;101667.59;5045124;28;20025;-59
2023/06/09 00:25:20;;;;;;;18.08;4.05;;;;;;;15.14;100.00;101664.00;5044445;28;20044;-59
2023/06/09 00:27:45;;;;;;;13.77;4.28;;;;;;;15.08;100.00;101664.25;5044815;28;20312;-57
2023/06/09 00:30:13;;;;;;;13.50;4.35;;;;;;;15.09;100.00;101666.00;5045862;28;20469;-56
2023/06/09 00:32:39;;;;;;;17.17;4.25;;;;;;;15.05;100.00;101661.72;5045255;28;20527;-57
2023/06/09 00:35:05;;;;;;;15.75;3.92;;;;;;;15.02;100.00;101660.06;5044689;28;20044;-58
2023/06/09 00:37:30;;;;;;;7.10;3.42;;;;;;;15.12;100.00;101665.88;5045018;28;20186;-60
2023/06/09 00:39:56;;;;;;;12.75;4.70;;;;;;;15.03;100.00;101660.94;5044071;28;20017;-55
2023/06/09 00:42:21;;;;;;;11.98;4.03;;;;;;;15.07;100.00;101659.88;5044632;28;20032;-60
2023/06/09 00:44:46;;;;;;;12.57;4.25;;;;;;;15.16;100.00;101662.16;5044597;28;20423;-58
2023/06/09 00:47:12;;;;;;;16.90;4.50;;;;;;;15.01;100.00;101660.97;5044481;28;20024;-55
2023/06/09 00:49:37;;;;;;;15.15;4.50;;;;;;;14.93;100.00;101665.72;5043298;28;20028;-57
2023/06/09 00:52:03;;;;;;;16.25;4.43;;;;;;;14.93;100.00;101664.88;5042983;28;20106;-57
2023/06/09 00:54:28;;;;;;;14.05;3.95;;;;;;;15.00;100.00;101661.03;5042615;28;20295;-58
2023/06/09 00:56:55;;;;;;;11.23;4.28;;;;;;;14.90;100.00;101661.41;5043099;28;20033;-55
2023/06/09 00:59:21;;;;;;;17.15;4.32;;;;;;;14.94;100.00;101666.59;5042803;28;20035;-56
2023/06/09 01:01:46;;;;;;;19.15;4.03;;;;;;;14.84;100.00;101658.97;5044609;28;20033;-56
2023/06/09 01:04:15;;;;;;;16.58;4.60;;;;;;;14.87;100.00;101656.22;5043642;28;20515;-62
2023/06/09 01:06:56;;;;;;;13.53;4.33;;;;;;;14.83;100.00;101653.72;5216544;22;20080;-57
2023/06/09 01:09:30;;;;;;;18.65;5.03;;;;;;;14.75;100.00;101657.50;5043193;28;20029;-57
2023/06/09 01:12:26;;;;;;;15.48;4.70;;;;;;;14.77;100.00;101658.34;5043156;28;20059;-55
2023/06/09 01:14:56;;;;;;;16.42;4.40;;;;;;;14.74;100.00;101663.75;5044169;28;20029;-61
2023/06/09 01:17:23;;;;;;;22.02;5.30;;;;;;;14.68;100.00;101656.03;5044954;28;20017;-56
2023/06/09 01:19:52;;;;;;;24.08;5.22;;;;;;;14.70;100.00;101653.31;5042981;28;20031;-56
2023/06/09 01:22:33;;;;;;;13.70;4.53;;;;;;;14.66;100.00;101661.38;5043569;28;20028;-59
2023/06/09 01:25:26;;;;;;;20.60;4.40;;;;;;;14.63;100.00;101650.91;5025549;28;20276;-61
2023/06/09 01:27:57;;;;;;;12.35;4.43;;;;;;;14.66;100.00;101648.13;5043082;28;20028;-60
2023/06/09 01:30:23;;;;;;;15.10;4.50;;;;;;;14.59;100.00;101651.94;5043044;28;20497;-59
2023/06/09 01:32:49;;;;;;;13.10;4.57;;;;;;;14.65;100.00;101651.72;5043178;28;20225;-58
2023/06/09 01:35:14;;;;;;;14.15;4.13;;;;;;;14.56;100.00;101652.06;5044423;28;20048;-57
2023/06/09 01:37:40;;;;;;;14.63;3.83;;;;;;;14.67;100.00;101646.34;5043830;28;20588;-57
2023/06/09 01:40:06;;;;;;;12.20;4.65;;;;;;;14.63;100.00;101637.63;5043375;28;20466;-59
2023/06/09 01:42:31;;;;;;;16.92;4.60;;;;;;;14.66;100.00;101645.47;5044134;28;20059;-56
2023/06/09 01:44:56;;;;;;;17.85;4.68;;;;;;;14.57;100.00;101637.88;5043811;28;20025;-57
2023/06/09 01:47:22;;;;;;;17.45;5.45;;;;;;;14.62;100.00;101635.03;5044335;28;20194;-58
2023/06/09 01:49:57;;;;;;;15.57;5.20;;;;;;;14.62;100.00;101635.91;5043840;28;20429;-59
2023/06/09 01:52:30;;;;;;;17.85;4.45;;;;;;;14.50;100.00;101625.75;5043407;28;20057;-59
2023/06/09 01:54:58;;;;;;;16.42;4.35;;;;;;;14.44;100.00;101628.63;5041771;28;20052;-57
2023/06/09 01:57:32;;;;;;;14.53;4.53;;;;;;;14.47;100.00;101625.88;5043076;28;20056;-56
2023/06/09 02:00:01;;;;;;;12.98;4.88;;;;;;;14.43;100.00;101618.97;5044542;28;20314;-59
2023/06/09 02:02:28;;;;;;;13.00;4.65;;;;;;;14.42;100.00;101617.25;5046891;28;20032;-55
2023/06/09 02:04:56;;;;;;;14.88;4.70;;;;;;;14.47;100.00;101628.53;5046272;28;20028;-55
2023/06/09 02:07:21;;;;;;;13.73;4.68;;;;;;;14.48;100.00;101627.63;5047084;28;20045;-55
2023/06/09 02:09:47;;;;;;;12.57;5.15;;;;;;;14.50;100.00;101617.81;5047166;28;20025;-56
2023/06/09 02:12:12;;;;;;;17.25;4.30;;;;;;;14.44;100.00;101616.25;5046494;28;20029;-63
2023/06/09 02:14:39;;;;;;;10.68;4.13;;;;;;;14.44;100.00;101620.69;5048481;28;20037;-59
2023/06/09 02:17:04;;;;;;;15.70;4.22;;;;;;;14.39;100.00;101619.09;5047479;28;20033;-57
2023/06/09 02:19:35;;;;;;;6.55;4.00;;;;;;;14.36;100.00;101626.31;5047494;28;20036;-57
2023/06/09 02:22:01;;;;;;;13.13;4.43;;;;;;;14.39;100.00;101619.09;5047661;28;20107;-57
2023/06/09 02:24:28;;;;;;;15.82;5.07;;;;;;;14.35;100.00;101622.78;5046911;28;20036;-60
2023/06/09 02:26:56;;;;;;;15.38;4.68;;;;;;;14.37;100.00;101620.06;5047412;28;20044;-59
2023/06/09 02:29:25;;;;;;;17.70;5.07;;;;;;;14.28;100.00;101622.16;5047598;28;20116;-55
2023/06/09 02:31:50;;;;;;;17.17;4.85;;;;;;;14.18;100.00;101620.72;5047000;28;20642;-53
2023/06/09 02:34:16;;;;;;;16.00;4.20;;;;;;;14.26;100.00;101624.00;5047671;28;20494;-58
2023/06/09 02:36:44;;;;;;;11.05;4.63;;;;;;;14.27;100.00;101619.56;5047821;28;20029;-58
2023/06/09 02:39:09;;;;;;;12.07;5.00;;;;;;;14.22;100.00;101626.81;5046508;28;20154;-55
2023/06/09 02:41:35;;;;;;;13.70;4.38;;;;;;;14.23;100.00;101626.75;5047229;28;20104;-59
2023/06/09 02:44:00;;;;;;;10.57;4.43;;;;;;;14.11;100.00;101616.59;5046682;28;20116;-59
2023/06/09 02:46:25;;;;;;;9.35;3.95;;;;;;;14.09;100.00;101619.28;5046998;28;20178;-55
2023/06/09 02:48:51;;;;;;;11.05;4.65;;;;;;;14.07;100.00;101618.50;5046793;28;20017;-55
2023/06/09 02:51:16;;;;;;;11.63;4.28;;;;;;;14.12;100.00;101611.22;5047191;28;20064;-60
2023/06/09 02:53:41;;;;;;;11.70;4.00;;;;;;;14.01;100.00;101619.59;5047600;28;20045;-58
2023/06/09 02:56:07;;;;;;;16.08;4.55;;;;;;;14.11;100.00;101613.94;5046420;28;20036;-53
2023/06/09 02:58:32;;;;;;;12.90;4.78;;;;;;;14.03;100.00;101617.72;5046943;28;20021;-57
2023/06/09 03:00:58;;;;;;;14.95;4.60;;;;;;;13.99;100.00;101613.47;5045636;28;20021;-60
2023/06/09 03:03:25;;;;;;;13.57;4.75;;;;;;;13.92;100.00;101608.44;5047049;28;20025;-58
2023/06/09 03:05:52;;;;;;;10.48;4.28;;;;;;;13.95;100.00;101608.34;5046674;28;20053;-59
2023/06/09 03:08:17;;;;;;;9.70;4.05;;;;;;;13.96;100.00;101607.41;5046945;28;20032;-61
2023/06/09 03:10:43;;;;;;;9.27;4.10;;;;;;;14.01;100.00;101613.41;5045483;28;20021;-59
2023/06/09 03:13:08;;;;;;;15.45;4.18;;;;;;;13.92;100.00;101611.09;5047146;28;20021;-55
2023/06/09 03:15:33;;;;;;;13.57;3.88;;;;;;;13.96;100.00;101615.34;5046753;28;20017;-56
2023/06/09 03:17:59;;;;;;;13.30;4.57;;;;;;;14.00;100.00;101614.34;5046220;28;20078;-60
2023/06/09 03:20:24;;;;;;;18.33;5.70;;;;;;;13.91;100.00;101610.25;5046267;28;20033;-57
2023/06/09 03:22:52;;;;;;;15.30;4.88;;;;;;;13.92;100.00;101614.63;5045962;28;20039;-57
2023/06/09 03:25:19;;;;;;;17.92;4.50;;;;;;;13.96;100.00;101610.94;5045677;28;20071;-56
2023/06/09 03:27:44;;;;;;;10.00;4.28;;;;;;;14.03;100.00;101616.88;5046087;28;20044;-58
2023/06/09 03:30:10;;;;;;;12.68;4.03;;;;;;;13.95;100.00;101613.63;5046675;28;20068;-60
2023/06/09 03:32:35;;;;;;;15.30;4.25;;;;;;;14.05;100.00;101609.72;5045958;28;20024;-62
2023/06/09 03:35:00;;;;;;;12.63;3.83;;;;;;;14.00;100.00;101609.03;5045863;28;20074;-59
2023/06/09 03:37:26;;;;;;;9.15;3.92;;;;;;;13.99;100.00;101616.13;5046155;28;20079;-58
2023/06/09 03:39:51;;;;;;;17.80;3.97;;;;;;;13.89;100.00;101607.66;5045114;28;20032;-57
2023/06/09 03:42:16;;;;;;;12.32;4.40;;;;;;;13.87;100.00;101609.47;5045918;28;20028;-58
2023/06/09 03:44:42;;;;;;;15.25;5.03;;;;;;;13.92;100.00;101608.44;5046139;28;20025;-59
2023/06/09 03:47:09;;;;;;;12.85;4.10;;;;;;;13.92;100.00;101609.31;5046691;28;20273;-59
2023/06/09 03:49:35;;;;;;;14.50;4.68;;;;;;;13.91;100.00;101607.59;5045900;28;20376;-59
2023/06/09 03:52:00;;;;;;;12.57;4.28;;;;;;;13.95;100.00;101608.34;5045601;28;20059;-60
2023/06/09 03:54:26;;;;;;;13.30;4.20;;;;;;;13.88;100.00;101599.75;5045105;28;20040;-62
2023/06/09 03:56:52;;;;;;;9.07;4.00;;;;;;;13.80;100.00;101604.44;5045565;28;20033;-58
2023/06/09 03:59:17;;;;;;;16.10;4.55;;;;;;;13.81;100.00;101606.19;5045966;28;20032;-59
2023/06/09 04:01:42;;;;;;;16.02;4.35;;;;;;;13.84;100.00;101601.63;5045451;28;20029;-60
2023/06/09 04:04:08;;;;;;;9.77;4.22;;;;;;;13.82;100.00;101603.47;5046009;28;20033;-56
2023/06/09 04:06:35;;;;;;;15.05;4.38;;;;;;;13.74;100.00;101610.81;5045331;28;20463;-58
2023/06/09 04:09:02;;;;;;;11.13;3.88;;;;;;;13.70;100.00;101602.09;5044647;28;20032;-60
2023/06/09 04:11:29;;;;;;;10.55;4.32;;;;;;;13.70;100.00;101599.47;5045435;28;20107;-58
2023/06/09 04:13:55;;;;;;;11.65;4.38;;;;;;;13.77;100.00;101593.06;5045264;28;20049;-58
2023/06/09 04:16:20;;;;;;;8.60;4.00;;;;;;;13.81;100.00;101607.03;5045301;28;20083;-61
2023/06/09 04:18:46;;;;;;;9.35;4.68;;;;;;;13.64;100.00;101597.91;5045250;28;20104;-60
2023/06/09 04:21:13;;;;;;;9.27;4.35;;;;;;;13.69;100.00;101603.03;5045292;28;20045;-60
2023/06/09 04:23:38;;;;;;;11.85;4.60;;;;;;;13.92;100.00;101606.66;5044739;28;20729;-57
2023/06/09 04:26:08;;;;;;;14.50;4.60;;;;;;;13.86;100.00;101604.22;5045072;28;20408;-55
2023/06/09 04:28:33;;;;;;;13.38;4.25;;;;;;;13.96;100.00;101610.94;5045653;28;20060;-55
2023/06/09 04:31:00;;;;;;;13.52;5.30;;;;;;;13.86;100.00;101605.09;5044793;28;20332;-56
2023/06/09 04:33:26;;;;;;;13.57;4.60;;;;;;;14.03;100.00;101619.53;5044984;28;20531;-58
2023/06/09 04:35:54;;;;;;;14.55;4.53;;;;;;;14.06;100.00;101611.44;5045013;28;20495;-55
2023/06/09 04:38:20;;;;;;;14.55;4.22;;;;;;;13.93;100.00;101611.03;5044937;28;20463;-57
2023/06/09 04:40:46;;;;;;;15.15;4.78;;;;;;;13.89;100.00;101612.94;5044483;28;20485;-56
2023/06/09 04:43:12;;;;;;;13.43;4.38;;;;;;;13.94;100.00;101612.75;5045204;28;20433;-56
2023/06/09 04:45:38;;;;;;;9.02;4.47;;;;;;;13.87;100.00;101617.44;5044993;28;20021;-59
2023/06/09 04:48:05;;;;;;;12.27;5.10;;;;;;;14.08;100.00;101619.34;5044792;28;20374;-59
2023/06/09 04:50:32;;;;;;;16.83;5.20;;;;;;;14.02;100.00;101626.63;5044784;28;20096;-59
2023/06/09 04:52:58;;;;;;;15.45;5.25;;;;;;;14.10;100.00;101617.50;5044896;28;20020;-59
2023/06/09 04:55:25;;;;;;;13.50;4.47;;;;;;;14.18;100.00;101625.19;5043893;28;20487;-60
2023/06/09 04:57:56;;;;;;;16.70;5.22;;;;;;;14.21;100.00;101619.78;5044371;28;20049;-59
2023/06/09 05:00:26;;;;;;;14.05;5.32;;;;;;;14.17;100.00;101618.19;5044544;28;20467;-60
2023/06/09 05:02:53;;;;;;;14.55;4.68;;;;;;;14.29;100.00;101628.31;5044380;28;20033;-59
2023/06/09 05:05:19;;;;;;;12.98;5.15;;;;;;;14.45;100.00;101617.13;5044751;28;20159;-59
2023/06/09 05:07:44;;;;;;;13.43;4.97;;;;;;;14.58;100.00;101615.75;5044264;28;20029;-61
2023/06/09 05:10:10;;;;;;;13.18;4.68;;;;;;;14.37;100.00;101625.38;5044197;28;20506;-59
2023/06/09 05:12:36;;;;;;;20.08;5.32;;;;;;;14.45;100.00;101627.75;5044429;28;20021;-58
2023/06/09 05:15:03;;;;;;;12.35;4.78;;;;;;;14.38;100.00;101630.63;5044306;28;20110;-59
2023/06/09 05:17:28;;;;;;;16.63;4.90;;;;;;;14.51;100.00;101633.66;5043155;28;20021;-63
2023/06/09 05:19:53;;;;;;;9.90;5.20;;;;;;;14.58;100.00;101633.44;5044446;28;20013;-61
2023/06/09 05:22:19;;;;;;;15.82;4.97;;;;;;;14.54;100.00;101635.31;5044603;28;20017;-61
2023/06/09 05:24:44;;;;;;;17.92;5.95;;;;;;;14.68;100.00;101640.13;5043435;28;20417;-60
2023/06/09 05:27:10;;;;;;;17.63;5.13;;;;;;;14.85;100.00;101646.59;5044426;28;20051;-58
2023/06/09 05:29:36;;;;;;;13.23;5.53;;;;;;;14.98;100.00;101642.53;5044115;28;20031;-59
2023/06/09 05:32:02;;;;;;;15.60;5.40;;;;;;;15.05;100.00;101632.50;5043724;28;20827;-61
2023/06/09 05:34:27;;;;;;;13.68;5.32;;;;;;;14.99;100.00;101644.25;5046991;28;20387;-59
2023/06/09 05:36:53;;;;;;;8.82;4.95;;;;;;;15.09;100.00;101647.41;5048250;28;20032;-58
2023/06/09 05:39:18;;;;;;;17.52;5.15;;;;;;;15.16;100.00;101640.06;5047387;28;20475;-58
2023/06/09 05:41:43;;;;;;;12.25;5.05;;;;;;;15.29;100.00;101629.78;5047921;28;20033;-60
2023/06/09 05:44:09;;;;;;;13.65;5.32;;;;;;;15.21;100.00;101646.06;5048608;28;20024;-60
2023/06/09 05:46:38;;;;;;;12.68;5.07;;;;;;;15.31;100.00;101637.69;5047804;28;20017;-59
2023/06/09 05:49:03;;;;;;;17.65;5.35;;;;;;;15.43;100.00;101634.53;5048157;28;20120;-59
2023/06/09 05:51:28;;;;;;;12.13;5.13;;;;;;;15.55;100.00;101635.81;5048063;28;20420;-57
2023/06/09 05:53:54;;;;;;;17.85;5.63;;;;;;;15.70;100.00;101630.75;5047317;28;20036;-58
2023/06/09 05:56:19;;;;;;;21.15;5.32;;;;;;;15.63;100.00;101639.00;5048217;28;20233;-57
2023/06/09 05:58:45;;;;;;;14.52;5.38;;;;;;;15.62;100.00;101639.94;5047700;28;20029;-60
2023/06/09 06:01:12;;;;;;;17.25;5.03;;;;;;;15.72;100.00;101632.44;5048241;28;20017;-61
2023/06/09 06:03:38;;;;;;;13.40;5.10;;;;;;;15.82;100.00;101632.91;5048073;28;20100;-59
2023/06/09 06:06:04;;;;;;;15.85;5.28;;;;;;;15.83;100.00;101639.09;5047082;28;20075;-55
2023/06/09 06:08:29;;;;;;;17.83;6.00;;;;;;;16.04;100.00;101629.31;5046891;28;20065;-56
2023/06/09 06:10:55;;;;;;;17.75;5.57;;;;;;;16.07;100.00;101626.53;5047315;28;20098;-57
2023/06/09 06:13:20;;;;;;;14.40;5.80;;;;;;;15.90;100.00;101636.06;5047494;28;20037;-59
2023/06/09 06:15:45;;;;;;;15.13;5.53;;;;;;;16.15;100.00;101634.16;5047215;28;20091;-57
2023/06/09 06:18:11;;;;;;;17.25;5.78;;;;;;;16.22;100.00;101637.44;5047730;28;20044;-64
2023/06/09 06:20:36;;;;;;;63.75;8.15;;;;;;;16.40;100.00;101633.91;5047494;28;20013;-57
2023/06/09 06:23:02;;;;;;;21.45;6.43;;;;;;;16.52;100.00;101637.81;5047048;28;20747;-56
2023/06/09 06:25:28;;;;;;;40.08;6.63;;;;;;;16.60;100.00;101639.25;5046321;28;20060;-58
2023/06/09 06:27:55;;;;;;;19.38;7.07;;;;;;;16.57;100.00;101634.94;5047032;28;20029;-58
2023/06/09 06:30:20;;;;;;;26.85;6.65;;;;;;;16.58;100.00;101636.66;5047055;28;20418;-61
2023/06/09 06:32:50;;;;;;;12.27;5.40;;;;;;;16.82;100.00;101631.09;5047027;28;20021;-61
2023/06/09 06:35:26;;;;;;;14.30;6.22;;;;;;;16.90;100.00;101631.63;5046836;28;20383;-54
2023/06/09 06:37:51;;;;;;;24.08;6.35;;;;;;;17.06;100.00;101630.84;5047249;28;20036;-54
2023/06/09 06:40:17;;;;;;;19.25;5.53;;;;;;;17.18;100.00;101638.28;5047093;28;20543;-58
2023/06/09 06:42:42;;;;;;;19.00;6.15;;;;;;;17.14;100.00;101639.38;5046100;28;20067;-64
2023/06/09 06:45:08;;;;;;;12.95;5.97;;;;;;;17.28;100.00;101644.00;5046378;28;20090;-58
2023/06/09 06:47:33;;;;;;;16.23;6.25;;;;;;;17.33;100.00;101646.44;5046913;28;20391;-58
2023/06/09 06:49:59;;;;;;;14.90;5.95;;;;;;;17.23;100.00;101642.50;5046642;28;20052;-61
2023/06/09 06:52:24;;;;;;;14.60;5.47;;;;;;;17.23;100.00;101642.50;5046780;28;20044;-59
2023/06/09 06:54:49;;;;;;;23.88;6.13;;;;;;;17.37;100.00;101636.50;5045954;28;20213;-57
2023/06/09 06:57:15;;;;;;;12.52;6.10;;;;;;;17.48;100.00;101630.63;5047229;28;20029;-59
2023/06/09 06:59:40;;;;;;;17.27;6.75;;;;;;;17.63;100.00;101635.19;5046852;28;20021;-60
2023/06/09 07:02:06;;;;;;;15.55;6.13;;;;;;;17.64;100.00;101636.88;5046428;28;20017;-58
2023/06/09 07:04:31;;;;;;;18.45;6.07;;;;;;;17.83;100.00;101638.63;5045185;28;20025;-59
2023/06/09 07:06:56;;;;;;;14.13;6.45;;;;;;;17.82;100.00;101628.88;5046284;28;20041;-59
2023/06/09 07:09:22;;;;;;;18.30;6.35;;;;;;;17.96;100.00;101640.63;5045912;28;20040;-61
2023/06/09 07:11:47;;;;;;;12.75;6.20;;;;;;;18.00;100.00;101631.53;5046517;28;20018;-58
2023/06/09 07:14:12;;;;;;;14.40;6.75;;;;;;;17.90;100.00;101634.69;5046314;28;20025;-61
2023/06/09 07:16:38;;;;;;;20.13;6.45;;;;;;;18.09;100.00;101635.53;5046933;28;20029;-60
2023/06/09 07:19:04;;;;;;;14.07;6.18;;;;;;;18.28;100.00;101630.09;5046085;28;20032;-61
2023/06/09 07:21:32;;;;;;;15.07;6.25;;;;;;;18.39;100.00;101633.03;5046238;28;20497;-59
2023/06/09 07:23:57;;;;;;;17.33;6.53;;;;;;;18.07;100.00;101638.28;5045282;28;20290;-60
2023/06/09 07:26:23;;;;;;;21.20;6.75;;;;;;;18.08;100.00;101631.97;5045956;28;20376;-59
2023/06/09 07:28:48;;;;;;;15.13;6.13;;;;;;;18.28;100.00;101646.09;5045716;28;20263;-58
2023/06/09 07:31:13;;;;;;;20.20;6.38;;;;;;;18.55;100.00;101640.19;5046014;28;20102;-57
2023/06/09 07:33:40;;;;;;;16.55;6.28;;;;;;;18.83;100.00;101630.66;5046087;28;20344;-59
2023/06/09 07:36:10;;;;;;;16.00;6.18;;;;;;;18.96;100.00;101644.16;5045652;28;20222;-57
2023/06/09 07:38:37;;;;;;;16.40;7.20;;;;;;;19.08;100.00;101642.63;5045209;28;20025;-63
2023/06/09 07:41:03;;;;;;;18.05;6.80;;;;;;;18.84;100.00;101639.53;5044592;28;20041;-63
2023/06/09 07:43:28;;;;;;;14.23;6.45;;;;;;;19.09;100.00;101643.50;5045770;28;20017;-57
2023/06/09 07:45:53;;;;;;;12.82;6.68;;;;;;;19.01;100.00;101633.22;5045560;28;20060;-61
2023/06/09 07:48:19;;;;;;;22.63;7.63;;;;;;;18.89;100.00;101638.31;5045911;28;20108;-57
2023/06/09 07:50:45;;;;;;;16.63;6.97;;;;;;;19.03;100.00;101637.50;5045457;28;20104;-58
2023/06/09 07:53:10;;;;;;;17.17;7.18;;;;;;;19.26;100.00;101637.19;5045598;28;20471;-58
2023/06/09 07:55:36;;;;;;;12.90;6.82;;;;;;;19.34;100.00;101634.91;5045480;28;20033;-57
2023/06/09 07:58:01;;;;;;;14.80;6.32;;;;;;;19.63;100.00;101632.31;5045052;28;20032;-64
2023/06/09 08:00:26;;;;;;;18.55;6.25;;;;;;;19.88;100.00;101632.66;5045443;28;20021;-61
2023/06/09 08:03:00;;;;;;;13.10;6.43;;;;;;;20.07;100.00;101638.63;5045306;28;20545;-60
2023/06/09 08:05:26;;;;;;;13.65;6.63;;;;;;;20.13;100.00;101639.19;5045173;28;20140;-59
2023/06/09 08:07:51;;;;;;;13.52;6.80;;;;;;;20.26;100.00;101634.78;5045509;28;20557;-60
2023/06/09 08:10:16;;;;;;;16.17;6.30;;;;;;;20.45;100.00;101641.66;5044710;28;20673;-61
2023/06/09 08:12:42;;;;;;;14.52;6.65;;;;;;;20.57;100.00;101640.03;5045454;28;20056;-65
2023/06/09 08:15:07;;;;;;;15.02;6.88;;;;;;;20.57;100.00;101638.22;5045387;28;20044;-61
2023/06/09 08:17:33;;;;;;;17.38;6.95;;;;;;;20.44;100.00;101634.59;5045377;28;20025;-59
2023/06/09 08:19:58;;;;;;;20.38;7.13;;;;;;;20.64;100.00;101630.63;5044668;28;20025;-59
2023/06/09 08:22:23;;;;;;;18.35;7.60;;;;;;;20.74;100.00;101627.38;5045212;28;20356;-60
2023/06/09 08:24:49;;;;;;;16.58;6.85;;;;;;;20.78;100.00;101616.38;5043996;28;20024;-59
2023/06/09 08:27:14;;;;;;;14.38;7.07;;;;;;;20.89;100.00;101620.16;5044841;28;20067;-60
2023/06/09 08:29:40;;;;;;;13.63;7.25;;;;;;;20.79;100.00;101617.22;5045572;28;20059;-61
2023/06/09 08:32:06;;;;;;;19.85;6.40;;;;;;;21.15;100.00;101615.78;5043504;28;20116;-62
2023/06/09 08:34:31;;;;;;;14.77;6.85;;;;;;;21.06;100.00;101621.75;5045282;28;20052;-59
2023/06/09 08:36:57;;;;;;;15.73;7.10;;;;;;;21.21;100.00;101617.19;5044513;28;20072;-60
2023/06/09 08:39:23;;;;;;;14.23;7.35;;;;;;;21.42;100.00;101619.38;5043996;28;20020;-59
2023/06/09 08:41:51;;;;;;;16.38;8.02;;;;;;;21.26;100.00;101619.56;5044372;28;20201;-60
2023/06/09 08:44:16;;;;;;;15.90;7.68;;;;;;;21.12;100.00;101618.66;5044541;28;20487;-55
2023/06/09 08:46:43;;;;;;;22.60;8.20;;;;;;;21.26;100.00;101619.56;5043555;28;20134;-59
2023/06/09 08:49:08;;;;;;;16.23;7.28;;;;;;;21.56;100.00;101623.81;5043744;28;20523;-59
2023/06/09 08:51:37;;;;;;;13.32;7.35;;;;;;;21.75;100.00;101614.47;5043103;28;20331;-62
2023/06/09 08:54:02;;;;;;;;;;;;;;;21.86;98.74;101614.63;5044288;28;20036;-58
2023/06/09 08:56:28;;;;;;;17.90;7.55;;;;;;;21.68;100.00;101622.09;5043467;28;19913;-56
2023/06/09 08:58:54;;;;;;;15.55;8.10;;;;;;;21.43;100.00;101627.31;5044246;28;20111;-58
2023/06/09 09:01:20;;;;;;;14.18;7.28;;;;;;;21.78;100.00;101623.22;5043695;28;20029;-57
2023/06/09 09:03:50;;;;;;;19.88;8.60;;;;;;;21.92;100.00;101624.94;5044582;28;20032;-61
2023/06/09 09:06:15;;;;;;;13.93;7.68;;;;;;;21.99;100.00;101621.78;5044464;28;20222;-59
2023/06/09 09:08:41;;;;;;;15.50;7.90;;;;;;;22.04;99.44;101614.28;5043668;28;20100;-61
2023/06/09 09:11:06;;;;;;;17.20;8.00;;;;;;;22.16;99.64;101617.94;5044205;28;20025;-62
2023/06/09 09:13:32;;;;;;;15.13;8.00;;;;;;;22.08;99.85;101618.47;5044639;28;20108;-63
2023/06/09 09:16:01;;;;;;;16.90;8.18;;;;;;;22.32;99.07;101617.69;5044557;28;20035;-61
2023/06/09 09:18:35;;;;;;;23.30;8.73;;;;;;;22.19;98.75;101618.56;5044178;28;20023;-62
2023/06/09 09:21:02;;;;;;;17.35;8.13;;;;;;;22.20;99.66;101620.28;5043920;28;20040;-57
2023/06/09 09:23:31;;;;;;;16.63;8.73;;;;;;;22.26;99.54;101618.13;5043679;28;20112;-56
2023/06/09 09:26:02;;;;;;;19.83;7.97;;;;;;;22.44;98.80;101615.94;5044322;28;20056;-65
2023/06/09 09:28:38;;;;;;;23.67;8.40;;;;;;;22.76;97.28;101617.28;5044055;28;20523;-60
2023/06/09 09:31:03;;;;;;;16.13;8.70;;;;;;;22.93;96.59;101610.63;5043963;28;20534;-63
2023/06/09 09:33:29;;;;;;;17.33;8.05;;;;;;;22.99;96.11;101612.88;5044792;28;20013;-59
2023/06/09 09:35:56;;;;;;;17.90;7.35;;;;;;;23.20;95.25;101612.22;5043488;28;20529;-59
2023/06/09 09:38:30;;;;;;;22.45;8.05;;;;;;;23.30;94.66;101605.16;5043803;28;20405;-61
2023/06/09 09:40:57;;;;;;;17.60;9.02;;;;;;;23.21;94.21;101604.03;5043764;28;20495;-59
2023/06/09 09:43:28;;;;;;;19.40;9.13;;;;;;;23.27;95.85;101607.25;5044347;28;20053;-60
2023/06/09 09:45:56;;;;;;;27.52;9.27;;;;;;;23.17;96.50;101607.94;5043744;28;20051;-57
2023/06/09 09:48:24;;;;;;;16.80;8.48;;;;;;;23.60;94.03;101602.97;5044747;28;20032;-56
2023/06/09 09:50:51;;;;;;;16.23;7.80;;;;;;;23.62;96.46;101595.63;5043829;28;20029;-60
2023/06/09 09:53:20;;;;;;;16.10;8.43;;;;;;;23.94;94.57;101600.31;5043379;28;20100;-63
2023/06/09 09:55:46;;;;;;;16.80;7.85;;;;;;;23.86;95.41;101602.75;5043552;28;20059;-60
2023/06/09 09:58:14;;;;;;;17.92;9.00;;;;;;;23.69;94.76;101602.22;5044635;28;20056;-60
2023/06/09 10:00:43;;;;;;;19.35;8.52;;;;;;;23.92;95.58;101596.00;5044408;28;20027;-59
2023/06/09 10:03:14;;;;;;;11.75;7.38;;;;;;;24.05;95.46;101599.44;5044204;28;20117;-59
2023/06/09 10:05:43;;;;;;;18.05;8.50;;;;;;;24.28;92.88;101596.78;5044012;28;20049;-60
2023/06/09 10:08:10;;;;;;;16.63;8.23;;;;;;;24.54;95.13;101595.63;5043486;28;20040;-61
2023/06/09 10:10:36;;;;;;;17.50;8.73;;;;;;;24.36;94.86;101593.47;5043758;28;20029;-62
2023/06/09 10:13:03;;;;;;;18.65;8.13;;;;;;;24.38;93.20;101591.47;5044153;28;20033;-61
2023/06/09 10:15:29;;;;;;;16.77;8.77;;;;;;;24.79;93.48;101588.19;5044032;28;20048;-61
2023/06/09 10:17:55;;;;;;;18.85;8.07;;;;;;;24.98;91.78;101587.53;5044321;28;20060;-59
2023/06/09 10:20:21;;;;;;;20.17;8.27;;;;;;;24.99;91.07;101578.50;5045007;28;20419;-59
2023/06/09 10:22:47;;;;;;;17.15;8.52;;;;;;;24.80;92.23;101584.53;5046951;28;20347;-60
2023/06/09 10:25:13;;;;;;;17.83;8.13;;;;;;;24.86;91.65;101582.19;5047510;28;20383;-61
2023/06/09 10:27:39;;;;;;;14.80;8.25;;;;;;;24.90;93.02;101585.53;5048001;28;20029;-59
2023/06/09 10:30:05;;;;;;;19.92;8.60;;;;;;;25.09;89.96;101581.25;5047109;28;20414;-58
2023/06/09 10:32:33;;;;;;;17.33;9.20;;;;;;;24.89;90.81;101582.94;5047507;28;20664;-59
2023/06/09 10:35:01;;;;;;;15.60;8.88;;;;;;;24.75;90.44;101582.22;5047345;28;20036;-61
2023/06/09 10:37:31;;;;;;;17.07;8.43;;;;;;;25.26;92.25;101576.28;5048027;28;20029;-59
2023/06/09 10:40:09;;;;;;;11.43;7.32;;;;;;;25.77;90.05;101571.06;5046570;28;20486;-62
2023/06/09 10:42:52;;;;;;;18.42;8.73;;;;;;;25.52;88.96;101570.47;5047363;28;20100;-59
2023/06/09 10:45:19;;;;;;;22.10;8.88;;;;;;;25.33;88.57;101572.06;5047279;28;20052;-62
2023/06/09 10:47:46;;;;;;;17.23;8.10;;;;;;;25.56;88.67;101577.31;5045725;28;20021;-59
2023/06/09 10:50:30;;;;;;;13.02;7.70;;;;;;;25.97;87.73;101572.84;5047116;28;20036;-59
2023/06/09 10:53:02;;;;;;;26.95;7.97;;;;;;;26.15;85.87;101566.78;5045925;28;20404;-57
2023/06/09 10:55:28;;;;;;;16.33;7.50;;;;;;;26.44;85.71;101570.59;5047302;28;20029;-62
2023/06/09 10:57:57;;;;;;;15.98;7.38;;;;;;;26.77;84.46;101573.03;5047063;28;20021;-62
2023/06/09 11:00:23;;;;;;;12.40;6.90;;;;;;;26.86;84.18;101567.66;5046519;28;20112;-60
2023/06/09 11:03:08;;;;;;;12.30;7.53;;;;;;;26.51;85.64;101562.81;5046868;28;20119;-59
2023/06/09 11:05:44;;;;;;;16.05;8.23;;;;;;;26.53;84.70;101549.97;5046152;28;20049;-59
2023/06/09 11:08:09;;;;;;;9.68;7.30;;;;;;;26.60;82.28;101552.00;5046575;28;20029;-61
2023/06/09 11:10:38;;;;;;;14.50;7.72;;;;;;;26.57;83.78;101554.09;5046758;28;20217;-59